Marble Falls' Hourly Summary for Saturday, July 7, 2018
Hour Temp
(f)
RH
(%)
Solar Rad.
(MJ/m2)
Rainfall
(in)
Wind
(mph)
7/7/2018 12:00 AM 81 72 0 0 1.72
7/7/2018 1:00 AM 79 75 0 0 2.02
7/7/2018 2:00 AM 78 77 0 0 2.02
7/7/2018 3:00 AM 77 83 0 0 0.41
7/7/2018 4:00 AM 76 85 0 0 0.41
7/7/2018 5:00 AM 74 87 0 0 0.04
7/7/2018 6:00 AM 74 87 0 0 0.3
7/7/2018 7:00 AM 74 87 0.09 0 0.3
7/7/2018 8:00 AM 76 86 0.46 0 0.42
7/7/2018 9:00 AM 78 81 1.27 0 0.92
7/7/2018 10:00 AM 80 74 1.91 0 2.26
7/7/2018 11:00 AM 81 71 1.91 0.81 2.92
7/7/2018 12:00 PM 81 88 0.9 0.25 3.98
7/7/2018 1:00 PM 76 88 1.83 0 3.98
7/7/2018 2:00 PM 82 82 2.12 0 3.4
7/7/2018 3:00 PM 82 73 2.12 0.06 3.82
7/7/2018 4:00 PM 76 97 0.24 0.05 3.82
7/7/2018 5:00 PM 74 99 0.44 0.01 0.52
7/7/2018 6:00 PM 75 100 0.45 0 0.42
7/7/2018 7:00 PM 75 100 0.45 0 0.95
7/7/2018 8:00 PM 74 100 0.18 0 0.95
7/7/2018 9:00 PM 74 100 0.09 0 0.03
7/7/2018 10:00 PM 74 100 0 0 0.03
7/7/2018 11:00 PM 74 100 0 0 0.43
Data Summary 76 87 14.46 1.18 1.50